sensor_id;sensor_type;location;lat;lon;timestamp;P1;durP1;ratioP1;P2;durP2;ratioP2
53890;SDS011;41337;51.400;-2.342;2022-10-31T00:04:59;28.15;;;3.80;;
53890;SDS011;41337;51.400;-2.342;2022-10-31T00:10:00;25.88;;;3.17;;
53890;SDS011;41337;51.400;-2.342;2022-10-31T00:15:01;24.75;;;3.95;;
53890;SDS011;41337;51.400;-2.342;2022-10-31T00:20:02;25.42;;;3.83;;
53890;SDS011;41337;51.400;-2.342;2022-10-31T00:25:03;25.60;;;3.20;;
53890;SDS011;41337;51.400;-2.342;2022-10-31T00:30:10;23.17;;;3.10;;
53890;SDS011;41337;51.400;-2.342;2022-10-31T00:35:11;25.92;;;3.42;;
53890;SDS011;41337;51.400;-2.342;2022-10-31T00:40:12;18.52;;;3.22;;
53890;SDS011;41337;51.400;-2.342;2022-10-31T00:45:13;35.13;;;3.65;;
53890;SDS011;41337;51.400;-2.342;2022-10-31T00:50:14;20.60;;;2.83;;
53890;SDS011;41337;51.400;-2.342;2022-10-31T00:55:15;20.90;;;3.45;;
53890;SDS011;41337;51.400;-2.342;2022-10-31T01:00:16;27.50;;;2.85;;
53890;SDS011;41337;51.400;-2.342;2022-10-31T01:05:17;18.98;;;2.80;;
53890;SDS011;41337;51.400;-2.342;2022-10-31T01:10:21;29.88;;;2.65;;
53890;SDS011;41337;51.400;-2.342;2022-10-31T01:15:23;21.67;;;3.33;;
53890;SDS011;41337;51.400;-2.342;2022-10-31T01:20:24;19.67;;;2.78;;
53890;SDS011;41337;51.400;-2.342;2022-10-31T01:25:24;18.70;;;2.63;;
53890;SDS011;41337;51.400;-2.342;2022-10-31T01:30:25;17.35;;;3.10;;
53890;SDS011;41337;51.400;-2.342;2022-10-31T01:35:26;22.92;;;2.42;;
53890;SDS011;41337;51.400;-2.342;2022-10-31T01:40:29;19.75;;;2.58;;
53890;SDS011;41337;51.400;-2.342;2022-10-31T01:45:30;21.80;;;2.80;;
53890;SDS011;41337;51.400;-2.342;2022-10-31T01:50:32;26.08;;;2.78;;
53890;SDS011;41337;51.400;-2.342;2022-10-31T01:55:39;16.07;;;2.57;;
53890;SDS011;41337;51.400;-2.342;2022-10-31T02:00:48;17.48;;;2.42;;
53890;SDS011;41337;51.400;-2.342;2022-10-31T02:05:56;23.85;;;3.08;;
53890;SDS011;41337;51.400;-2.342;2022-10-31T02:10:58;20.42;;;2.40;;
53890;SDS011;41337;51.400;-2.342;2022-10-31T02:22:30;20.40;;;2.83;;
53890;SDS011;41337;51.400;-2.342;2022-10-31T02:49:47;26.27;;;2.90;;
53890;SDS011;41337;51.400;-2.342;2022-10-31T03:00:28;17.58;;;2.47;;
53890;SDS011;41337;51.400;-2.342;2022-10-31T03:11:01;21.38;;;2.72;;
53890;SDS011;41337;51.400;-2.342;2022-10-31T03:21:53;19.83;;;2.70;;
53890;SDS011;41337;51.400;-2.342;2022-10-31T03:27:02;19.60;;;2.25;;
53890;SDS011;41337;51.400;-2.342;2022-10-31T03:32:16;24.08;;;3.10;;
53890;SDS011;41337;51.400;-2.342;2022-10-31T03:37:38;21.17;;;3.13;;
53890;SDS011;41337;51.400;-2.342;2022-10-31T03:42:41;24.67;;;2.85;;
53890;SDS011;41337;51.400;-2.342;2022-10-31T03:47:58;22.67;;;2.55;;
53890;SDS011;41337;51.400;-2.342;2022-10-31T03:58:40;22.52;;;3.38;;
53890;SDS011;41337;51.400;-2.342;2022-10-31T04:03:53;16.20;;;3.17;;
53890;SDS011;41337;51.400;-2.342;2022-10-31T04:08:56;23.23;;;3.10;;
53890;SDS011;41337;51.400;-2.342;2022-10-31T04:14:04;28.95;;;3.42;;
53890;SDS011;41337;51.400;-2.342;2022-10-31T04:19:07;18.25;;;2.50;;
53890;SDS011;41337;51.400;-2.342;2022-10-31T04:24:07;23.35;;;3.83;;
53890;SDS011;41337;51.400;-2.342;2022-10-31T04:29:08;22.50;;;3.45;;
53890;SDS011;41337;51.400;-2.342;2022-10-31T04:34:09;19.38;;;3.03;;
53890;SDS011;41337;51.400;-2.342;2022-10-31T04:39:10;25.10;;;3.20;;
53890;SDS011;41337;51.400;-2.342;2022-10-31T04:44:11;23.83;;;3.20;;
53890;SDS011;41337;51.400;-2.342;2022-10-31T04:49:12;32.83;;;3.33;;
53890;SDS011;41337;51.400;-2.342;2022-10-31T04:54:13;29.55;;;2.97;;
53890;SDS011;41337;51.400;-2.342;2022-10-31T04:59:13;19.60;;;3.17;;
53890;SDS011;41337;51.400;-2.342;2022-10-31T05:04:14;28.27;;;3.10;;
53890;SDS011;41337;51.400;-2.342;2022-10-31T05:09:15;18.95;;;3.65;;
53890;SDS011;41337;51.400;-2.342;2022-10-31T05:14:16;19.45;;;3.25;;
53890;SDS011;41337;51.400;-2.342;2022-10-31T05:19:23;18.98;;;3.10;;
53890;SDS011;41337;51.400;-2.342;2022-10-31T05:24:24;16.10;;;2.78;;
53890;SDS011;41337;51.400;-2.342;2022-10-31T05:29:24;26.52;;;2.67;;
53890;SDS011;41337;51.400;-2.342;2022-10-31T05:34:25;24.85;;;2.90;;
53890;SDS011;41337;51.400;-2.342;2022-10-31T05:39:26;23.95;;;2.70;;
53890;SDS011;41337;51.400;-2.342;2022-10-31T05:44:27;21.75;;;2.58;;
53890;SDS011;41337;51.400;-2.342;2022-10-31T05:49:27;26.30;;;2.70;;
53890;SDS011;41337;51.400;-2.342;2022-10-31T05:54:28;16.35;;;3.05;;
53890;SDS011;41337;51.400;-2.342;2022-10-31T05:59:29;25.08;;;3.95;;
53890;SDS011;41337;51.400;-2.342;2022-10-31T06:04:30;16.48;;;3.05;;
53890;SDS011;41337;51.400;-2.342;2022-10-31T06:09:31;19.63;;;4.25;;
53890;SDS011;41337;51.400;-2.342;2022-10-31T06:14:31;25.13;;;3.17;;
53890;SDS011;41337;51.400;-2.342;2022-10-31T06:19:32;19.23;;;3.60;;
53890;SDS011;41337;51.400;-2.342;2022-10-31T06:24:33;13.55;;;2.70;;
53890;SDS011;41337;51.400;-2.342;2022-10-31T06:29:34;24.55;;;4.28;;
53890;SDS011;41337;51.400;-2.342;2022-10-31T06:34:41;17.42;;;2.92;;
53890;SDS011;41337;51.400;-2.342;2022-10-31T06:39:42;30.63;;;4.40;;
53890;SDS011;41337;51.400;-2.342;2022-10-31T06:44:43;21.92;;;2.92;;
53890;SDS011;41337;51.400;-2.342;2022-10-31T06:49:44;24.77;;;3.88;;
53890;SDS011;41337;51.400;-2.342;2022-10-31T06:54:45;21.73;;;3.33;;
53890;SDS011;41337;51.400;-2.342;2022-10-31T06:59:45;23.05;;;3.22;;
53890;SDS011;41337;51.400;-2.342;2022-10-31T07:04:46;26.00;;;3.92;;
53890;SDS011;41337;51.400;-2.342;2022-10-31T07:09:47;16.58;;;3.50;;
53890;SDS011;41337;51.400;-2.342;2022-10-31T07:14:48;23.08;;;3.30;;
53890;SDS011;41337;51.400;-2.342;2022-10-31T07:19:48;15.68;;;2.42;;
53890;SDS011;41337;51.400;-2.342;2022-10-31T07:24:49;23.05;;;2.90;;
53890;SDS011;41337;51.400;-2.342;2022-10-31T07:29:50;22.45;;;3.03;;
53890;SDS011;41337;51.400;-2.342;2022-10-31T07:34:51;20.77;;;3.40;;
53890;SDS011;41337;51.400;-2.342;2022-10-31T07:39:52;25.08;;;2.88;;
53890;SDS011;41337;51.400;-2.342;2022-10-31T07:44:58;23.40;;;3.10;;
53890;SDS011;41337;51.400;-2.342;2022-10-31T07:49:59;24.15;;;2.83;;
53890;SDS011;41337;51.400;-2.342;2022-10-31T07:55:00;28.52;;;3.05;;
53890;SDS011;41337;51.400;-2.342;2022-10-31T08:00:01;21.55;;;3.10;;
53890;SDS011;41337;51.400;-2.342;2022-10-31T08:05:07;19.70;;;2.75;;
53890;SDS011;41337;51.400;-2.342;2022-10-31T08:10:11;24.48;;;3.00;;
53890;SDS011;41337;51.400;-2.342;2022-10-31T08:15:12;10.63;;;2.85;;
53890;SDS011;41337;51.400;-2.342;2022-10-31T08:20:13;16.13;;;2.50;;
53890;SDS011;41337;51.400;-2.342;2022-10-31T08:25:13;22.88;;;4.18;;
53890;SDS011;41337;51.400;-2.342;2022-10-31T08:30:14;17.23;;;2.88;;
53890;SDS011;41337;51.400;-2.342;2022-10-31T08:35:15;17.45;;;2.53;;
53890;SDS011;41337;51.400;-2.342;2022-10-31T08:40:16;21.92;;;3.03;;
53890;SDS011;41337;51.400;-2.342;2022-10-31T08:45:17;21.75;;;3.40;;
53890;SDS011;41337;51.400;-2.342;2022-10-31T08:50:18;18.10;;;2.97;;
53890;SDS011;41337;51.400;-2.342;2022-10-31T08:55:19;12.38;;;2.85;;
53890;SDS011;41337;51.400;-2.342;2022-10-31T09:00:20;20.65;;;2.53;;
53890;SDS011;41337;51.400;-2.342;2022-10-31T09:05:20;16.67;;;2.28;;
53890;SDS011;41337;51.400;-2.342;2022-10-31T09:10:21;19.75;;;2.42;;
53890;SDS011;41337;51.400;-2.342;2022-10-31T09:15:25;21.02;;;3.13;;
53890;SDS011;41337;51.400;-2.342;2022-10-31T09:20:28;15.48;;;2.45;;
53890;SDS011;41337;51.400;-2.342;2022-10-31T09:25:29;17.05;;;2.63;;
53890;SDS011;41337;51.400;-2.342;2022-10-31T09:30:31;20.63;;;2.40;;
53890;SDS011;41337;51.400;-2.342;2022-10-31T09:35:33;13.15;;;2.33;;
53890;SDS011;41337;51.400;-2.342;2022-10-31T09:40:35;14.85;;;2.10;;
53890;SDS011;41337;51.400;-2.342;2022-10-31T09:51:04;14.70;;;2.15;;
53890;SDS011;41337;51.400;-2.342;2022-10-31T09:56:12;12.73;;;2.35;;
53890;SDS011;41337;51.400;-2.342;2022-10-31T10:07:09;15.40;;;2.70;;
53890;SDS011;41337;51.400;-2.342;2022-10-31T10:28:30;13.93;;;3.50;;
53890;SDS011;41337;51.400;-2.342;2022-10-31T10:33:59;11.50;;;2.65;;
53890;SDS011;41337;51.400;-2.342;2022-10-31T10:39:04;13.55;;;2.70;;
53890;SDS011;41337;51.400;-2.342;2022-10-31T10:44:28;14.73;;;2.25;;
53890;SDS011;41337;51.400;-2.342;2022-10-31T10:49:53;14.30;;;2.33;;
53890;SDS011;41337;51.400;-2.342;2022-10-31T11:00:18;7.85;;;1.65;;
53890;SDS011;41337;51.400;-2.342;2022-10-31T11:05:41;10.20;;;2.03;;
53890;SDS011;41337;51.400;-2.342;2022-10-31T11:10:43;11.57;;;2.17;;
53890;SDS011;41337;51.400;-2.342;2022-10-31T11:16:03;10.32;;;1.35;;
53890;SDS011;41337;51.400;-2.342;2022-10-31T11:21:20;7.07;;;1.58;;
53890;SDS011;41337;51.400;-2.342;2022-10-31T11:26:27;7.77;;;1.20;;
53890;SDS011;41337;51.400;-2.342;2022-10-31T11:31:28;4.07;;;1.25;;
53890;SDS011;41337;51.400;-2.342;2022-10-31T11:36:30;5.38;;;1.40;;
53890;SDS011;41337;51.400;-2.342;2022-10-31T11:41:39;9.30;;;1.33;;
53890;SDS011;41337;51.400;-2.342;2022-10-31T11:46:49;6.82;;;1.13;;
53890;SDS011;41337;51.400;-2.342;2022-10-31T11:51:52;16.92;;;2.05;;
53890;SDS011;41337;51.400;-2.342;2022-10-31T12:08:12;8.20;;;1.45;;
53890;SDS011;41337;51.400;-2.342;2022-10-31T12:18:38;4.07;;;1.10;;
53890;SDS011;41337;51.400;-2.342;2022-10-31T12:57:27;5.93;;;1.70;;
53890;SDS011;41337;51.400;-2.342;2022-10-31T13:07:36;6.15;;;1.27;;
53890;SDS011;41337;51.400;-2.342;2022-10-31T13:12:49;5.20;;;1.13;;
53890;SDS011;41337;51.400;-2.342;2022-10-31T13:18:03;4.78;;;0.80;;
53890;SDS011;41337;51.400;-2.342;2022-10-31T13:23:10;4.13;;;0.73;;
53890;SDS011;41337;51.400;-2.342;2022-10-31T13:28:24;1.83;;;0.60;;
53890;SDS011;41337;51.400;-2.342;2022-10-31T13:33:52;4.20;;;0.90;;
53890;SDS011;41337;51.400;-2.342;2022-10-31T13:44:22;5.88;;;1.05;;
53890;SDS011;41337;51.400;-2.342;2022-10-31T13:54:35;7.00;;;0.95;;
53890;SDS011;41337;51.400;-2.342;2022-10-31T13:59:38;3.28;;;0.60;;
53890;SDS011;41337;51.400;-2.342;2022-10-31T14:04:46;4.28;;;0.80;;
53890;SDS011;41337;51.400;-2.342;2022-10-31T14:09:54;4.22;;;1.00;;
53890;SDS011;41337;51.400;-2.342;2022-10-31T14:15:00;1.63;;;0.68;;
53890;SDS011;41337;51.400;-2.342;2022-10-31T14:25:35;4.88;;;0.88;;
53890;SDS011;41337;51.400;-2.342;2022-10-31T14:30:37;5.53;;;1.23;;
53890;SDS011;41337;51.400;-2.342;2022-10-31T14:41:25;9.15;;;3.72;;
53890;SDS011;41337;51.400;-2.342;2022-10-31T14:47:28;7.20;;;1.33;;
53890;SDS011;41337;51.400;-2.342;2022-10-31T14:52:36;6.40;;;1.80;;
53890;SDS011;41337;51.400;-2.342;2022-10-31T14:57:38;6.75;;;1.67;;
53890;SDS011;41337;51.400;-2.342;2022-10-31T15:08:56;6.15;;;1.52;;
53890;SDS011;41337;51.400;-2.342;2022-10-31T15:13:49;10.75;;;2.53;;
53890;SDS011;41337;51.400;-2.342;2022-10-31T15:18:58;6.32;;;2.33;;
53890;SDS011;41337;51.400;-2.342;2022-10-31T15:24:03;8.30;;;1.73;;
53890;SDS011;41337;51.400;-2.342;2022-10-31T15:29:05;7.32;;;1.83;;
53890;SDS011;41337;51.400;-2.342;2022-10-31T15:34:16;9.35;;;2.05;;
53890;SDS011;41337;51.400;-2.342;2022-10-31T15:39:25;6.35;;;1.98;;
53890;SDS011;41337;51.400;-2.342;2022-10-31T15:44:33;7.25;;;1.73;;
53890;SDS011;41337;51.400;-2.342;2022-10-31T15:49:42;11.40;;;2.47;;
53890;SDS011;41337;51.400;-2.342;2022-10-31T15:59:52;7.22;;;1.75;;
53890;SDS011;41337;51.400;-2.342;2022-10-31T16:04:57;11.20;;;1.70;;
53890;SDS011;41337;51.400;-2.342;2022-10-31T16:10:01;5.65;;;1.20;;
53890;SDS011;41337;51.400;-2.342;2022-10-31T16:15:12;6.95;;;1.55;;
53890;SDS011;41337;51.400;-2.342;2022-10-31T16:20:18;5.60;;;1.50;;
53890;SDS011;41337;51.400;-2.342;2022-10-31T16:25:37;4.07;;;1.58;;
53890;SDS011;41337;51.400;-2.342;2022-10-31T16:30:42;6.95;;;1.65;;
53890;SDS011;41337;51.400;-2.342;2022-10-31T16:35:49;3.75;;;1.40;;
53890;SDS011;41337;51.400;-2.342;2022-10-31T16:40:50;6.85;;;2.42;;
53890;SDS011;41337;51.400;-2.342;2022-10-31T16:45:56;6.53;;;2.90;;
53890;SDS011;41337;51.400;-2.342;2022-10-31T16:50:57;5.93;;;2.17;;
53890;SDS011;41337;51.400;-2.342;2022-10-31T16:55:58;10.20;;;3.10;;
53890;SDS011;41337;51.400;-2.342;2022-10-31T17:01:02;11.40;;;4.35;;
53890;SDS011;41337;51.400;-2.342;2022-10-31T17:06:12;17.48;;;5.03;;
53890;SDS011;41337;51.400;-2.342;2022-10-31T17:11:19;13.43;;;4.17;;
53890;SDS011;41337;51.400;-2.342;2022-10-31T17:16:23;16.70;;;4.22;;
53890;SDS011;41337;51.400;-2.342;2022-10-31T17:21:30;12.40;;;3.72;;
53890;SDS011;41337;51.400;-2.342;2022-10-31T17:26:31;22.95;;;7.22;;
53890;SDS011;41337;51.400;-2.342;2022-10-31T17:31:32;13.45;;;3.65;;
53890;SDS011;41337;51.400;-2.342;2022-10-31T17:36:40;15.05;;;4.93;;
53890;SDS011;41337;51.400;-2.342;2022-10-31T17:41:40;10.50;;;5.00;;
53890;SDS011;41337;51.400;-2.342;2022-10-31T17:46:41;7.88;;;4.40;;
53890;SDS011;41337;51.400;-2.342;2022-10-31T17:51:42;6.43;;;4.65;;
53890;SDS011;41337;51.400;-2.342;2022-10-31T17:56:43;21.35;;;8.60;;
53890;SDS011;41337;51.400;-2.342;2022-10-31T18:01:44;15.65;;;5.20;;
53890;SDS011;41337;51.400;-2.342;2022-10-31T18:06:44;10.95;;;4.88;;
53890;SDS011;41337;51.400;-2.342;2022-10-31T18:11:53;22.08;;;5.57;;
53890;SDS011;41337;51.400;-2.342;2022-10-31T18:16:54;4.35;;;3.55;;
53890;SDS011;41337;51.400;-2.342;2022-10-31T18:21:55;16.35;;;10.02;;
53890;SDS011;41337;51.400;-2.342;2022-10-31T18:26:56;18.50;;;10.80;;
53890;SDS011;41337;51.400;-2.342;2022-10-31T18:31:57;6.85;;;5.78;;
53890;SDS011;41337;51.400;-2.342;2022-10-31T18:36:58;16.60;;;7.60;;
53890;SDS011;41337;51.400;-2.342;2022-10-31T18:41:59;16.95;;;6.10;;
53890;SDS011;41337;51.400;-2.342;2022-10-31T18:47:06;9.35;;;5.03;;
53890;SDS011;41337;51.400;-2.342;2022-10-31T18:52:07;7.70;;;4.22;;
53890;SDS011;41337;51.400;-2.342;2022-10-31T18:57:07;7.47;;;4.00;;
53890;SDS011;41337;51.400;-2.342;2022-10-31T19:02:11;9.10;;;5.35;;
53890;SDS011;41337;51.400;-2.342;2022-10-31T19:07:17;16.65;;;8.50;;
53890;SDS011;41337;51.400;-2.342;2022-10-31T19:12:17;24.48;;;13.38;;
53890;SDS011;41337;51.400;-2.342;2022-10-31T19:17:18;23.25;;;14.95;;
53890;SDS011;41337;51.400;-2.342;2022-10-31T19:22:20;49.97;;;29.50;;
53890;SDS011;41337;51.400;-2.342;2022-10-31T19:27:20;15.40;;;10.60;;
53890;SDS011;41337;51.400;-2.342;2022-10-31T19:32:21;16.55;;;9.65;;
53890;SDS011;41337;51.400;-2.342;2022-10-31T19:37:22;22.13;;;16.40;;
53890;SDS011;41337;51.400;-2.342;2022-10-31T19:42:23;22.33;;;14.13;;
53890;SDS011;41337;51.400;-2.342;2022-10-31T19:47:32;18.08;;;10.50;;
53890;SDS011;41337;51.400;-2.342;2022-10-31T19:52:33;15.45;;;11.15;;
53890;SDS011;41337;51.400;-2.342;2022-10-31T19:57:35;23.45;;;13.55;;
53890;SDS011;41337;51.400;-2.342;2022-10-31T20:02:39;27.65;;;16.15;;
53890;SDS011;41337;51.400;-2.342;2022-10-31T20:07:39;27.20;;;15.00;;
53890;SDS011;41337;51.400;-2.342;2022-10-31T20:12:40;36.25;;;16.20;;
53890;SDS011;41337;51.400;-2.342;2022-10-31T20:17:41;36.47;;;15.85;;
53890;SDS011;41337;51.400;-2.342;2022-10-31T20:22:42;37.75;;;15.90;;
53890;SDS011;41337;51.400;-2.342;2022-10-31T20:27:46;33.58;;;17.67;;
53890;SDS011;41337;51.400;-2.342;2022-10-31T20:32:53;35.17;;;16.65;;
53890;SDS011;41337;51.400;-2.342;2022-10-31T20:37:55;32.72;;;17.13;;
53890;SDS011;41337;51.400;-2.342;2022-10-31T20:42:56;35.92;;;17.92;;
53890;SDS011;41337;51.400;-2.342;2022-10-31T20:47:56;34.28;;;17.08;;
53890;SDS011;41337;51.400;-2.342;2022-10-31T20:53:06;32.00;;;16.35;;
53890;SDS011;41337;51.400;-2.342;2022-10-31T20:58:07;41.47;;;16.83;;
53890;SDS011;41337;51.400;-2.342;2022-10-31T21:03:12;30.63;;;14.70;;
53890;SDS011;41337;51.400;-2.342;2022-10-31T21:08:13;35.53;;;16.17;;
53890;SDS011;41337;51.400;-2.342;2022-10-31T21:13:14;20.17;;;11.60;;
53890;SDS011;41337;51.400;-2.342;2022-10-31T21:18:15;14.32;;;7.75;;
53890;SDS011;41337;51.400;-2.342;2022-10-31T21:23:16;14.45;;;5.13;;
53890;SDS011;41337;51.400;-2.342;2022-10-31T21:28:17;8.70;;;4.03;;
53890;SDS011;41337;51.400;-2.342;2022-10-31T21:33:18;5.50;;;3.42;;
53890;SDS011;41337;51.400;-2.342;2022-10-31T21:38:18;6.05;;;2.78;;
53890;SDS011;41337;51.400;-2.342;2022-10-31T21:43:19;5.40;;;2.75;;
53890;SDS011;41337;51.400;-2.342;2022-10-31T21:48:20;6.07;;;2.35;;
53890;SDS011;41337;51.400;-2.342;2022-10-31T21:53:21;2.25;;;1.73;;
53890;SDS011;41337;51.400;-2.342;2022-10-31T21:58:41;2.85;;;1.70;;
53890;SDS011;41337;51.400;-2.342;2022-10-31T22:03:41;6.00;;;2.03;;
53890;SDS011;41337;51.400;-2.342;2022-10-31T22:08:42;7.00;;;1.77;;
53890;SDS011;41337;51.400;-2.342;2022-10-31T22:13:51;7.47;;;2.17;;
53890;SDS011;41337;51.400;-2.342;2022-10-31T22:23:55;10.80;;;2.50;;
53890;SDS011;41337;51.400;-2.342;2022-10-31T22:29:00;14.00;;;2.63;;
53890;SDS011;41337;51.400;-2.342;2022-10-31T22:34:13;7.55;;;2.05;;
53890;SDS011;41337;51.400;-2.342;2022-10-31T22:39:19;11.55;;;1.60;;
53890;SDS011;41337;51.400;-2.342;2022-10-31T22:44:20;8.07;;;1.60;;
53890;SDS011;41337;51.400;-2.342;2022-10-31T22:49:21;6.70;;;1.33;;
53890;SDS011;41337;51.400;-2.342;2022-10-31T22:54:21;10.63;;;1.58;;
53890;SDS011;41337;51.400;-2.342;2022-10-31T22:59:22;11.85;;;1.35;;
53890;SDS011;41337;51.400;-2.342;2022-10-31T23:04:23;12.63;;;2.03;;
53890;SDS011;41337;51.400;-2.342;2022-10-31T23:09:24;10.68;;;1.40;;
53890;SDS011;41337;51.400;-2.342;2022-10-31T23:14:25;18.88;;;1.92;;
53890;SDS011;41337;51.400;-2.342;2022-10-31T23:19:27;10.77;;;0.98;;
53890;SDS011;41337;51.400;-2.342;2022-10-31T23:24:42;14.32;;;1.38;;
53890;SDS011;41337;51.400;-2.342;2022-10-31T23:29:45;16.30;;;2.28;;
53890;SDS011;41337;51.400;-2.342;2022-10-31T23:34:48;13.02;;;1.27;;
53890;SDS011;41337;51.400;-2.342;2022-10-31T23:39:54;12.82;;;1.20;;
53890;SDS011;41337;51.400;-2.342;2022-10-31T23:44:55;15.60;;;2.03;;
53890;SDS011;41337;51.400;-2.342;2022-10-31T23:49:56;13.90;;;1.65;;
53890;SDS011;41337;51.400;-2.342;2022-10-31T23:54:57;12.10;;;1.67;;
53890;SDS011;41337;51.400;-2.342;2022-10-31T23:59:58;12.32;;;1.30;;
